NMSU Main Campus

2021-05-08 23:10:00

  • imperial
Date Time Air Temperature Relative Humidity Dewpoint Heat Index Wind Speed Wind Dir. Rain Solar Radiation
2m 2m 3m 3m
US/Mountain F % F F MPH deg in MJ/m^2
max avg avg
2021-05-07 23:15:00 72.8 16.4 24.6 72.8 0.0 0.0 0.0 125.1 0.0 0.00 0.0000000
2021-05-07 23:20:00 72.6 17.5 26.0 72.6 0.0 1.0 0.2 160.7 137.4 0.00 0.0000000
2021-05-07 23:25:00 72.9 20.6 30.1 72.9 0.0 2.2 0.7 122.9 126.1 0.00 0.0000000
2021-05-07 23:30:00 72.8 21.5 31.2 72.8 0.0 0.8 0.1 139.6 159.8 0.00 0.0000000
2021-05-07 23:35:00 72.2 23.9 33.3 72.2 0.0 0.0 0.0 131.1 0.0 0.00 0.0000000
2021-05-07 23:40:00 71.9 24.8 33.9 71.9 0.0 0.0 0.0 312.3 0.0 0.00 0.0000000
2021-05-07 23:45:00 71.6 26.5 35.4 71.6 0.0 0.0 0.0 336.7 0.0 0.00 0.0000000
2021-05-07 23:50:00 71.4 29.0 37.5 71.4 0.0 0.0 0.0 77.8 0.0 0.00 0.0000000
2021-05-07 23:55:00 71.1 30.2 38.2 71.1 0.0 0.0 0.0 45.6 0.0 0.00 0.0000000
2021-05-08 00:00:00 70.7 31.3 38.8 70.7 0.0 0.0 0.0 120.6 0.0 0.00 0.0000000
2021-05-08 00:05:00 70.9 31.7 39.4 70.9 0.8 2.4 0.6 221.9 154.6 0.00 0.0000000
2021-05-08 00:10:00 70.3 33.9 40.5 70.3 0.0 0.8 0.0 111.7 242.5 0.00 0.0000000
2021-05-08 00:15:00 70.4 34.5 41.0 70.4 0.0 2.6 0.6 231.8 172.6 0.00 0.0000000
2021-05-08 00:20:00 70.2 34.7 41.0 70.2 2.1 3.1 1.2 150.1 130.3 0.00 0.0000000
2021-05-08 00:25:00 70.2 36.3 42.2 70.2 0.0 3.7 1.2 116.3 131.2 0.00 0.0000000
2021-05-08 00:30:00 70.3 37.5 43.1 70.3 0.8 1.9 0.4 246.6 180.3 0.00 0.0000000
2021-05-08 00:35:00 70.0 37.7 43.0 70.0 0.0 1.2 0.1 193.9 230.9 0.00 0.0000000
2021-05-08 00:40:00 69.8 37.9 42.9 69.8 0.0 2.4 0.4 192.3 193.8 0.00 0.0000000
2021-05-08 00:45:00 70.2 37.2 42.8 70.2 1.9 3.1 0.8 135.6 136.3 0.00 0.0000000
2021-05-08 00:50:00 70.2 38.1 43.4 70.2 0.0 1.0 0.1 136.2 121.9 0.00 0.0000000
2021-05-08 00:55:00 70.1 38.9 43.9 70.1 0.0 1.7 0.3 191.9 118.8 0.00 0.0000000
2021-05-08 01:00:00 70.1 39.7 44.4 70.1 0.0 1.0 0.1 127.1 131.7 0.00 0.0000000
2021-05-08 01:05:00 69.7 40.0 44.3 69.7 0.0 0.8 0.0 151.5 117.1 0.00 0.0000000
2021-05-08 01:10:00 68.8 41.4 44.5 68.8 0.0 0.8 0.0 152.1 101.4 0.00 0.0000000
2021-05-08 01:15:00 68.6 42.1 44.7 68.6 0.0 0.0 0.0 110.3 0.0 0.00 0.0000000
2021-05-08 01:20:00 68.4 42.6 44.8 68.4 0.0 1.9 0.2 113.2 122.2 0.00 0.0000000
2021-05-08 01:25:00 68.4 42.8 44.9 68.4 3.3 4.2 1.9 135.2 117.2 0.00 0.0000000
2021-05-08 01:30:00 68.9 42.3 45.1 68.9 4.4 4.4 2.6 106.7 116.5 0.00 0.0000000
2021-05-08 01:35:00 69.7 42.3 45.7 69.7 4.7 5.5 2.9 99.8 114.8 0.00 0.0000000
2021-05-08 01:40:00 69.7 42.2 45.7 69.7 1.5 5.3 2.8 112.8 118.3 0.00 0.0000000
2021-05-08 01:45:00 69.4 42.2 45.5 69.4 1.0 3.1 1.5 143.6 129.1 0.00 0.0000000
2021-05-08 01:50:00 69.2 42.8 45.6 69.2 0.0 2.2 0.6 140.0 140.1 0.00 0.0000000
2021-05-08 01:55:00 69.0 43.2 45.7 69.0 0.8 2.6 0.8 136.5 132.6 0.00 0.0000000
2021-05-08 02:00:00 68.8 43.8 45.9 68.8 0.0 3.5 1.2 149.7 133.5 0.00 0.0000000
2021-05-08 02:05:00 68.7 44.6 46.3 68.7 0.0 2.8 1.1 132.3 128.3 0.00 0.0000000
2021-05-08 02:10:00 68.1 45.4 46.3 68.1 1.3 2.8 1.0 138.7 131.2 0.00 0.0000000
2021-05-08 02:15:00 68.3 45.2 46.3 68.3 2.4 4.7 2.6 136.1 112.9 0.00 0.0000000
2021-05-08 02:20:00 68.0 45.2 46.0 68.0 0.0 4.4 1.8 127.6 123.1 0.00 0.0000000
2021-05-08 02:25:00 67.7 45.5 45.9 67.7 0.0 3.8 1.9 97.6 114.4 0.00 0.0000000
2021-05-08 02:30:00 67.1 46.2 45.8 67.1 0.0 1.5 0.2 196.9 149.9 0.00 0.0000000
2021-05-08 02:35:00 66.5 47.0 45.6 66.5 0.0 0.0 0.0 135.7 0.0 0.00 0.0000000
2021-05-08 02:40:00 66.0 48.2 45.9 66.0 0.0 0.0 0.0 186.5 0.0 0.00 0.0000000
2021-05-08 02:45:00 65.4 49.1 45.8 65.4 0.0 0.0 0.0 142.6 0.0 0.00 0.0000000
2021-05-08 02:50:00 65.2 50.5 46.4 65.2 0.0 0.0 0.0 191.6 0.0 0.00 0.0000000
2021-05-08 02:55:00 64.5 51.6 46.3 64.5 0.0 0.8 0.0 252.5 152.2 0.00 0.0000000
2021-05-08 03:00:00 64.1 52.3 46.3 64.1 0.0 0.0 0.0 61.8 0.0 0.00 0.0000000
2021-05-08 03:05:00 64.0 51.2 45.6 64.0 0.0 1.0 0.1 217.8 191.9 0.00 0.0000000
2021-05-08 03:10:00 64.0 54.5 47.3 64.0 0.0 1.2 0.1 117.2 180.2 0.00 0.0000000
2021-05-08 03:15:00 63.8 52.2 46.0 63.8 0.0 0.0 0.0 174.4 0.0 0.00 0.0000000
2021-05-08 03:20:00 63.1 54.7 46.5 63.1 0.0 0.0 0.0 223.9 0.0 0.00 0.0000000
2021-05-08 03:25:00 62.3 53.9 45.4 62.3 0.0 0.0 0.0 19.2 0.0 0.00 0.0000040
2021-05-08 03:30:00 62.3 54.2 45.6 62.3 0.0 0.0 0.0 81.0 0.0 0.00 0.0000000
2021-05-08 03:35:00 62.6 57.4 47.3 62.6 0.0 0.0 0.0 141.5 0.0 0.00 0.0000000
2021-05-08 03:40:00 62.1 53.9 45.2 62.1 0.0 0.0 0.0 192.1 0.0 0.00 0.0000000
2021-05-08 03:45:00 61.5 53.9 44.6 61.5 0.0 0.0 0.0 184.2 0.0 0.00 0.0000000
2021-05-08 03:50:00 61.3 54.1 44.6 61.3 0.0 0.8 0.0 198.0 211.5 0.00 0.0000000
2021-05-08 03:55:00 61.5 53.4 44.4 61.5 0.0 1.2 0.2 175.5 202.3 0.00 0.0000000
2021-05-08 04:00:00 62.0 51.7 44.0 62.0 0.0 2.2 0.3 162.5 195.7 0.00 0.0000000
2021-05-08 04:05:00 62.3 51.9 44.4 62.3 0.0 0.0 0.0 173.4 0.0 0.00 0.0000000
2021-05-08 04:10:00 61.7 52.5 44.2 61.7 0.0 0.0 0.0 200.5 0.0 0.00 0.0000000
2021-05-08 04:15:00 61.8 53.4 44.7 61.8 0.0 0.0 0.0 206.4 0.0 0.00 0.0000000
2021-05-08 04:20:00 61.4 53.7 44.5 61.4 0.0 0.0 0.0 230.9 0.0 0.00 0.0000000
2021-05-08 04:25:00 60.8 55.1 44.5 60.8 0.0 0.0 0.0 190.2 0.0 0.00 0.0000000
2021-05-08 04:30:00 59.9 57.1 44.7 59.9 1.5 2.8 0.8 243.3 235.3 0.00 0.0000000
2021-05-08 04:35:00 59.3 58.6 44.8 59.3 0.0 1.3 0.1 192.9 229.0 0.00 0.0000000
2021-05-08 04:40:00 58.6 60.0 44.8 58.6 0.0 0.0 0.0 135.8 0.0 0.00 0.0000000
2021-05-08 04:45:00 57.7 61.2 44.4 57.7 0.0 0.0 0.0 197.7 0.0 0.00 0.0000000
2021-05-08 04:50:00 57.4 62.7 44.8 57.4 0.0 0.0 0.0 133.5 0.0 0.00 0.0000040
2021-05-08 04:55:00 56.7 64.0 44.6 56.7 0.0 0.8 0.0 215.7 168.6 0.00 0.0000040
2021-05-08 05:00:00 56.6 64.3 44.7 56.6 0.0 0.0 0.0 124.2 0.0 0.00 0.0000080
2021-05-08 05:05:00 56.6 64.9 45.0 56.6 0.0 0.0 0.0 246.3 0.0 0.00 0.0000000
2021-05-08 05:10:00 56.3 66.6 45.4 56.3 0.0 0.0 0.0 201.6 0.0 0.00 0.0000000
2021-05-08 05:15:00 56.3 65.9 45.0 56.3 0.0 1.5 0.2 130.6 160.3 0.00 0.0000000
2021-05-08 05:20:00 56.4 65.8 45.1 56.4 0.0 0.0 0.0 210.5 0.0 0.00 0.0000000
2021-05-08 05:25:00 56.1 67.7 45.5 56.1 0.0 0.8 0.0 206.1 185.3 0.00 0.0000000
2021-05-08 05:30:00 56.0 68.5 45.8 56.0 0.0 0.0 0.0 235.4 0.0 0.00 0.0000000
2021-05-08 05:35:00 56.0 66.9 45.1 56.0 0.0 0.0 0.0 252.2 0.0 0.00 0.0000000
2021-05-08 05:40:00 56.2 65.7 44.8 56.2 0.0 1.0 0.0 222.1 222.9 0.00 0.0000020
2021-05-08 05:45:00 57.2 63.3 44.8 57.2 0.0 1.0 0.1 149.1 165.3 0.00 0.0000000
2021-05-08 05:50:00 57.2 63.2 44.8 57.2 0.0 0.0 0.0 212.5 0.0 0.00 0.0000000
2021-05-08 05:55:00 57.1 63.0 44.7 57.1 0.0 0.8 0.1 193.4 190.6 0.00 0.0000422
2021-05-08 06:00:00 57.0 63.2 44.6 57.0 0.0 0.0 0.0 211.9 0.0 0.00 0.0001227
2021-05-08 06:05:00 56.7 64.3 44.8 56.7 0.0 0.8 0.0 191.1 186.2 0.00 0.0003358
2021-05-08 06:10:00 56.3 64.8 44.6 56.3 0.0 0.0 0.0 177.8 0.0 0.00 0.0006213
2021-05-08 06:15:00 55.9 65.6 44.5 55.9 0.0 0.0 0.0 201.1 0.0 0.00 0.0010939
2021-05-08 06:20:00 55.8 66.3 44.7 55.8 0.0 0.0 0.0 207.2 0.0 0.00 0.0016931
2021-05-08 06:25:00 55.4 66.5 44.5 55.4 0.0 0.8 0.0 229.3 193.0 0.00 0.0023447
2021-05-08 06:30:00 55.3 66.6 44.3 55.3 0.0 0.0 0.0 186.1 0.0 0.00 0.0030183
2021-05-08 06:35:00 55.0 66.4 44.0 55.0 0.0 0.0 0.0 221.3 0.0 0.00 0.0038006
2021-05-08 06:40:00 55.2 65.3 43.8 55.2 0.0 1.0 0.1 207.3 209.4 0.00 0.0050996
2021-05-08 06:45:00 55.4 64.9 43.8 55.4 0.0 1.0 0.1 185.1 194.0 0.00 0.0052404
2021-05-08 06:50:00 55.3 65.1 43.7 55.3 0.0 1.3 0.1 175.6 187.0 0.00 0.0057512
2021-05-08 06:55:00 55.4 65.9 44.2 55.4 0.0 0.0 0.0 199.3 0.0 0.00 0.0062579
2021-05-08 07:00:00 55.7 62.5 43.1 55.7 0.0 0.8 0.0 178.2 178.3 0.00 0.0069457
2021-05-08 07:05:00 56.2 63.4 43.9 56.2 0.0 0.0 0.0 207.3 0.0 0.00 0.0082528
2021-05-08 07:10:00 57.1 58.6 42.8 57.1 0.0 0.8 0.0 218.4 214.4 0.00 0.0083251
2021-05-08 07:15:00 58.0 53.9 41.4 58.0 0.0 0.0 0.0 190.4 0.0 0.00 0.0148866
2021-05-08 07:20:00 58.7 52.5 41.4 58.7 0.0 0.0 0.0 172.8 0.0 0.00 0.0096283
2021-05-08 07:25:00 59.2 51.0 41.1 59.2 0.0 0.8 0.0 160.0 161.8 0.00 0.0278954
2021-05-08 07:30:00 59.9 49.0 40.7 59.9 0.0 1.7 0.2 188.9 171.3 0.00 0.0483503
2021-05-08 07:35:00 60.5 50.6 42.1 60.5 0.0 1.0 0.1 199.5 168.8 0.00 0.0644940
2021-05-08 07:40:00 61.0 43.3 38.5 61.0 0.0 0.8 0.0 158.8 200.5 0.00 0.0710187
2021-05-08 07:45:00 62.1 39.9 37.4 62.1 0.0 1.0 0.1 173.0 177.7 0.00 0.0766564
2021-05-08 07:50:00 63.3 35.1 35.2 63.3 1.2 1.3 0.4 125.6 138.7 0.00 0.0824136
2021-05-08 07:55:00 64.6 29.3 31.9 64.6 0.8 1.7 0.4 95.6 141.6 0.00 0.0879117
2021-05-08 08:00:00 65.9 29.7 33.3 65.9 0.0 1.3 0.2 144.2 137.1 0.00 0.0935002
2021-05-08 08:05:00 66.6 26.2 30.8 66.6 3.0 3.1 0.8 91.8 149.3 0.00 0.0989678
2021-05-08 08:10:00 67.0 21.8 26.7 67.0 2.8 2.8 1.6 147.9 163.5 0.00 0.1044737
2021-05-08 08:15:00 67.4 19.9 24.7 67.4 0.0 2.4 0.5 168.9 164.1 0.00 0.1100571
2021-05-08 08:20:00 67.8 16.6 20.8 67.8 0.0 2.2 0.5 159.7 157.4 0.00 0.1154858
2021-05-08 08:25:00 68.9 16.4 21.4 68.9 0.0 1.2 0.2 119.1 132.7 0.00 0.1209701
2021-05-08 08:30:00 69.5 16.4 21.9 69.5 0.8 2.1 0.4 133.2 130.1 0.00 0.1265962
2021-05-08 08:35:00 69.8 16.8 22.7 69.8 0.0 2.2 0.6 149.1 159.5 0.00 0.1320026
2021-05-08 08:40:00 71.0 13.3 18.1 71.0 2.1 2.1 0.5 20.1 340.3 0.00 0.1374139
2021-05-08 08:45:00 71.3 14.1 19.9 71.3 2.4 2.6 1.3 212.0 49.5 0.00 0.1428545
2021-05-08 08:50:00 71.0 14.0 19.5 71.0 1.7 2.1 1.0 140.4 192.0 0.00 0.1479745
2021-05-08 08:55:00 71.5 15.6 22.3 71.5 0.0 1.5 0.4 326.2 222.0 0.00 0.1532356
2021-05-08 09:00:00 72.2 14.5 21.3 72.2 0.0 1.2 0.2 115.6 86.6 0.00 0.1584741
2021-05-08 09:05:00 72.6 12.9 18.7 72.6 0.0 2.6 0.7 1.8 275.8 0.00 0.1636698
2021-05-08 09:10:00 73.1 13.3 19.9 73.1 1.2 1.3 0.2 188.3 176.4 0.00 0.1691559
2021-05-08 09:15:00 73.5 13.2 20.0 73.5 0.0 2.1 0.6 243.4 198.1 0.00 0.1745044
2021-05-08 09:20:00 73.9 11.6 17.2 73.9 2.2 2.6 0.8 198.9 194.6 0.00 0.1799526
2021-05-08 09:25:00 74.1 16.3 25.4 74.1 2.1 2.8 0.9 251.9 244.4 0.00 0.1848930
2021-05-08 09:30:00 74.4 13.5 21.3 74.4 1.0 1.5 0.6 165.4 242.2 0.00 0.1898493
2021-05-08 09:35:00 75.0 12.7 20.2 75.0 0.0 3.0 1.2 51.8 143.3 0.00 0.1947116
2021-05-08 09:40:00 75.4 11.8 18.8 75.4 0.0 3.8 0.8 294.6 97.2 0.00 0.1993781
2021-05-08 09:45:00 76.0 11.8 19.3 76.0 3.0 3.0 1.4 45.9 51.0 0.00 0.2040284
2021-05-08 09:50:00 76.4 12.0 20.0 76.4 0.0 3.3 1.1 78.4 93.9 0.00 0.2087883
2021-05-08 09:55:00 76.6 10.9 17.9 76.6 0.0 4.4 1.7 317.0 128.1 0.00 0.2134365
2021-05-08 10:00:00 76.6 10.4 16.8 76.6 4.6 4.6 1.1 231.1 312.0 0.00 0.2175955
2021-05-08 10:05:00 77.1 9.3 14.6 77.1 2.1 4.7 2.4 212.7 219.7 0.00 0.2216521
2021-05-08 10:10:00 77.5 11.8 20.5 77.5 4.9 6.0 3.3 307.8 205.3 0.00 0.2259458
2021-05-08 10:15:00 78.4 8.4 13.4 78.4 8.5 8.7 5.8 245.1 244.0 0.00 0.2299220
2021-05-08 10:20:00 78.4 8.2 12.8 78.4 7.6 11.5 7.0 234.0 230.8 0.00 0.2344040
2021-05-08 10:25:00 78.0 7.8 11.2 78.0 8.1 11.3 8.0 241.3 233.8 0.00 0.2383604
2021-05-08 10:30:00 78.6 8.1 12.7 78.6 6.3 9.9 6.7 271.3 240.2 0.00 0.2424312
2021-05-08 10:35:00 78.5 9.2 15.4 78.5 6.0 8.0 5.5 278.2 250.2 0.00 0.2459157
2021-05-08 10:40:00 78.8 8.8 14.6 78.8 6.9 12.2 7.5 272.2 261.1 0.00 0.2494830
2021-05-08 10:45:00 78.4 8.2 12.7 78.4 10.3 11.7 7.8 248.5 249.5 0.00 0.2529249
2021-05-08 10:50:00 78.9 7.5 11.0 78.9 11.2 11.2 7.3 218.2 241.8 0.00 0.2567602
2021-05-08 10:55:00 78.7 9.5 16.4 78.7 6.7 11.3 7.5 247.6 236.8 0.00 0.2592000
2021-05-08 11:00:00 79.1 8.4 13.8 79.1 4.7 11.9 7.5 304.4 242.8 0.00 0.2626260
2021-05-08 11:05:00 79.3 7.6 11.8 79.3 7.2 14.4 7.4 257.6 251.8 0.00 0.2664236
2021-05-08 11:10:00 79.5 6.8 9.4 79.5 10.6 12.4 7.2 265.0 232.2 0.00 0.2687517
2021-05-08 11:15:00 79.5 9.8 17.8 79.5 8.7 12.6 7.0 308.0 265.1 0.00 0.2711663
2021-05-08 11:20:00 79.7 10.0 18.3 79.7 6.0 11.0 6.0 293.1 282.6 0.00 0.2740617
2021-05-08 11:25:00 80.0 9.0 16.1 80.0 4.2 10.1 6.3 284.2 263.3 0.00 0.2756864
2021-05-08 11:30:00 80.7 7.6 12.6 80.7 5.6 8.8 5.9 268.0 295.4 0.00 0.2777460
2021-05-08 11:35:00 81.4 6.9 11.0 81.4 7.1 12.6 6.7 298.4 253.1 0.00 0.2818860
2021-05-08 11:40:00 81.5 6.8 10.8 81.5 7.8 13.0 9.2 236.3 226.4 0.00 0.2844189
2021-05-08 11:45:00 81.8 6.4 9.8 81.8 11.3 13.0 7.2 230.6 243.6 0.00 0.2861158
2021-05-08 11:50:00 81.3 6.6 10.0 81.3 8.7 13.7 9.3 247.6 227.1 0.00 0.2881016
2021-05-08 11:55:00 81.2 6.9 11.0 81.2 6.9 12.1 7.7 234.9 245.5 0.00 0.2893991
2021-05-08 12:00:00 81.4 6.2 8.6 81.4 9.7 11.3 7.2 241.5 262.4 0.00 0.2904423
2021-05-08 12:05:00 81.6 7.0 11.5 81.6 6.5 13.5 8.2 265.6 234.4 0.00 0.2925958
2021-05-08 12:10:00 81.6 6.4 9.6 81.6 4.4 8.0 4.4 216.7 236.4 0.00 0.2932946
2021-05-08 12:15:00 82.8 6.3 9.9 82.8 5.3 8.7 5.1 229.9 232.4 0.00 0.2946046
2021-05-08 12:20:00 82.0 6.8 11.2 82.0 6.5 15.3 9.5 251.4 249.9 0.00 0.2967120
2021-05-08 12:25:00 82.3 5.6 6.9 82.3 11.3 14.6 8.7 237.0 276.9 0.00 0.2965875
2021-05-08 12:30:00 82.2 6.5 10.3 82.2 8.1 14.0 6.0 191.4 233.4 0.00 0.2981090
2021-05-08 12:35:00 82.9 8.3 16.4 82.9 9.4 12.4 5.5 270.0 247.4 0.00 0.2987426
2021-05-08 12:40:00 83.0 7.2 13.2 83.0 4.4 13.3 8.6 302.0 268.0 0.00 0.2994634
2021-05-08 12:45:00 83.3 6.0 9.2 83.3 10.3 14.7 8.4 241.5 247.0 0.00 0.3003665
2021-05-08 12:50:00 83.0 7.7 14.7 83.0 6.0 14.6 8.9 292.0 251.1 0.00 0.2998386
2021-05-08 12:55:00 82.8 5.9 8.6 82.8 6.5 14.2 10.1 250.7 254.7 0.00 0.3003408
2021-05-08 13:00:00 82.6 5.8 8.2 82.6 9.2 12.8 8.7 226.8 239.2 0.00 0.3007903
2021-05-08 13:05:00 84.0 5.7 8.5 84.0 6.5 12.1 7.6 283.7 230.5 0.00 0.3009963
2021-05-08 13:10:00 83.8 4.4 2.9 83.8 16.4 17.4 10.1 243.7 255.7 0.00 0.3019935
2021-05-08 13:15:00 83.3 5.7 8.3 83.3 5.5 16.2 9.7 200.2 227.8 0.00 0.3019084
2021-05-08 13:20:00 83.8 5.3 6.8 83.8 7.6 16.7 10.2 232.7 228.4 0.00 0.3015973
2021-05-08 13:25:00 84.3 3.9 0.9 84.3 10.5 14.4 8.7 243.6 250.2 0.00 0.3021252
2021-05-08 13:30:00 83.8 4.3 2.4 83.8 6.2 16.5 9.7 266.6 264.5 0.00 0.3012719
2021-05-08 13:35:00 83.8 4.3 2.2 83.8 16.7 19.4 10.5 233.1 237.4 0.00 0.2997798
2021-05-08 13:40:00 84.3 5.2 6.9 84.3 13.3 14.7 8.8 232.4 228.6 0.00 0.2990551
2021-05-08 13:45:00 84.1 5.6 8.3 84.1 7.6 8.3 6.0 185.8 208.4 0.00 0.2976219
2021-05-08 13:50:00 85.4 3.8 0.9 85.4 10.1 11.7 7.4 238.7 242.4 0.00 0.2970508
2021-05-08 13:55:00 85.3 5.6 9.0 85.3 5.3 13.5 7.6 274.9 234.6 0.00 0.2943460
2021-05-08 14:00:00 84.2 5.0 6.0 84.2 6.9 11.5 7.7 266.1 242.6 0.00 0.2928579
2021-05-08 14:05:00 84.9 5.1 6.8 84.9 9.6 18.9 10.6 204.2 251.0 0.00 0.2908001
2021-05-08 14:10:00 84.9 4.4 3.5 84.9 8.0 14.7 10.8 270.2 245.6 0.00 0.2906228
2021-05-08 14:15:00 85.2 4.7 5.1 85.2 11.2 17.4 9.9 248.2 255.7 0.00 0.2870732
2021-05-08 14:20:00 84.1 5.3 7.0 84.1 6.7 18.7 11.5 234.4 248.6 0.00 0.2867118
2021-05-08 14:25:00 85.2 4.3 3.4 85.2 10.6 16.2 9.2 252.4 252.9 0.00 0.2861491
2021-05-08 14:30:00 85.0 6.2 11.2 85.0 5.6 13.1 8.6 228.7 264.5 0.00 0.2846498
2021-05-08 14:35:00 85.0 5.6 9.1 85.0 3.1 11.7 6.8 262.3 255.1 0.00 0.2824942
2021-05-08 14:40:00 85.4 4.1 2.7 85.4 11.2 15.1 8.1 242.1 244.4 0.00 0.2796147
2021-05-08 14:45:00 85.3 3.8 1.0 85.3 14.0 18.7 10.9 213.7 241.7 0.00 0.2780789
2021-05-08 14:50:00 85.6 5.1 7.3 85.6 8.0 13.7 9.2 231.2 241.0 0.00 0.2751473
2021-05-08 14:55:00 85.7 4.9 6.5 85.7 8.3 15.1 9.0 213.0 242.8 0.00 0.2707121
2021-05-08 15:00:00 85.3 4.0 2.1 85.3 14.4 15.5 10.7 250.7 248.5 0.00 0.2700724
2021-05-08 15:05:00 85.8 4.3 4.0 85.8 8.5 14.4 10.1 225.1 229.7 0.00 0.2666271
2021-05-08 15:10:00 86.3 4.2 3.5 86.3 9.4 14.9 8.9 213.2 248.2 0.00 0.2633183
2021-05-08 15:15:00 85.8 4.3 4.0 85.8 8.8 16.2 10.4 274.8 244.9 0.00 0.2601475
2021-05-08 15:20:00 85.8 4.5 4.8 85.8 14.0 17.2 10.5 248.1 223.2 0.00 0.2572271
2021-05-08 15:25:00 86.1 3.9 1.9 86.1 8.8 15.5 9.2 231.2 235.7 0.00 0.2537334
2021-05-08 15:30:00 85.7 4.6 5.3 85.7 5.1 11.7 7.1 269.9 230.5 0.00 0.2497018
2021-05-08 15:35:00 87.1 4.5 5.5 87.1 12.1 13.0 7.8 247.0 248.4 0.00 0.2453699
2021-05-08 15:40:00 86.2 5.1 7.9 86.2 5.3 11.0 7.9 204.5 255.7 0.00 0.2425008
2021-05-08 15:45:00 86.2 4.1 3.2 86.2 8.8 13.1 9.5 227.1 252.7 0.00 0.2385588
2021-05-08 15:50:00 86.3 5.6 9.9 86.3 4.4 13.1 8.5 263.2 251.9 0.00 0.2350078
2021-05-08 15:55:00 86.1 4.2 3.5 86.1 4.9 12.6 8.2 229.3 249.6 0.00 0.2311624
2021-05-08 16:00:00 85.8 4.8 6.0 85.8 10.1 12.4 8.0 250.7 246.3 0.00 0.2282086
2021-05-08 16:05:00 85.8 5.3 8.5 85.8 4.6 14.9 10.4 263.0 247.5 0.00 0.2237172
2021-05-08 16:10:00 85.7 4.1 2.9 85.7 7.8 12.4 8.3 204.5 230.5 0.00 0.2190634
2021-05-08 16:15:00 86.4 4.9 6.9 86.4 7.6 16.5 8.0 225.8 251.9 0.00 0.2148875
2021-05-08 16:20:00 86.8 3.8 2.0 86.8 7.8 17.4 10.0 206.2 247.3 0.00 0.2102853
2021-05-08 16:25:00 86.6 5.3 9.0 86.6 7.1 13.5 9.0 271.1 240.7 0.00 0.2062971
2021-05-08 16:30:00 86.4 4.2 3.7 86.4 10.1 12.1 8.0 227.8 250.7 0.00 0.2013663
2021-05-08 16:35:00 86.7 4.4 5.1 86.7 6.3 14.2 7.8 223.5 238.6 0.00 0.1952758
2021-05-08 16:40:00 86.1 3.9 1.7 86.1 13.0 16.5 9.2 220.2 252.4 0.00 0.1922720
2021-05-08 16:45:00 86.5 3.7 1.0 86.5 11.9 16.5 9.5 245.8 261.4 0.00 0.1875507
2021-05-08 16:50:00 85.7 4.0 2.0 85.7 8.8 18.5 11.1 241.6 239.4 0.00 0.1818636
2021-05-08 16:55:00 86.3 4.3 4.3 86.3 6.2 11.2 7.9 308.5 240.1 0.00 0.1769365
2021-05-08 17:00:00 86.0 4.2 3.5 86.0 4.6 11.5 7.0 197.2 231.0 0.00 0.1720465
2021-05-08 17:05:00 86.2 4.1 2.9 86.2 12.2 12.2 7.4 243.6 254.7 0.00 0.1672396
2021-05-08 17:10:00 86.1 3.2 -2.1 86.1 12.4 15.1 10.5 244.1 254.7 0.00 0.1616110
2021-05-08 17:15:00 86.3 3.9 2.0 86.3 9.0 12.4 9.2 212.7 248.8 0.00 0.1557284
2021-05-08 17:20:00 86.0 3.8 1.3 86.0 12.1 16.4 11.5 273.8 238.4 0.00 0.1497520
2021-05-08 17:25:00 86.1 3.8 1.2 86.1 4.9 13.9 7.0 265.3 256.2 0.00 0.1449654
2021-05-08 17:30:00 86.0 4.3 4.0 86.0 7.6 12.4 7.8 247.4 244.1 0.00 0.1399539
2021-05-08 17:35:00 86.4 3.8 1.7 86.4 11.7 16.0 9.9 269.2 232.8 0.00 0.1341038
2021-05-08 17:40:00 86.1 4.1 3.2 86.1 9.6 13.3 10.6 203.3 245.0 0.00 0.1290471
2021-05-08 17:45:00 86.2 4.4 4.6 86.2 5.1 11.0 7.7 280.5 245.5 0.00 0.1236753
2021-05-08 17:50:00 86.5 5.0 7.3 86.5 8.8 11.3 7.4 254.4 246.2 0.00 0.1174119
2021-05-08 17:55:00 86.5 4.2 4.0 86.5 9.2 12.1 8.1 254.8 247.1 0.00 0.1123747
2021-05-08 18:00:00 86.3 4.6 5.6 86.3 7.1 11.3 8.1 225.1 250.4 0.00 0.1071267
2021-05-08 18:05:00 85.9 4.7 5.7 85.9 7.6 13.5 9.1 231.2 245.9 0.00 0.1015238
2021-05-08 18:10:00 86.1 4.4 4.4 86.1 10.5 10.8 7.9 269.6 233.4 0.00 0.0950420
2021-05-08 18:15:00 85.7 4.7 5.4 85.7 11.2 11.9 8.6 238.6 256.4 0.00 0.0889164
2021-05-08 18:20:00 85.6 5.1 7.5 85.6 6.0 11.7 7.4 243.7 250.7 0.00 0.0836124
2021-05-08 18:25:00 85.3 4.8 5.9 85.3 6.2 10.8 7.6 195.6 254.4 0.00 0.0788925
2021-05-08 18:30:00 84.7 4.9 5.9 84.7 9.4 13.9 10.4 270.0 287.5 0.00 0.0739012
2021-05-08 18:35:00 84.8 4.5 4.0 84.8 13.5 13.5 8.5 228.4 255.4 0.00 0.0674467
2021-05-08 18:40:00 85.0 4.7 4.9 85.0 8.5 14.0 7.3 245.3 264.4 0.00 0.0625143
2021-05-08 18:45:00 84.8 4.5 4.2 84.8 10.5 17.1 10.3 225.4 251.6 0.00 0.0580008
2021-05-08 18:50:00 84.5 4.7 4.9 84.5 7.4 12.8 8.6 226.5 253.0 0.00 0.0524062
2021-05-08 18:55:00 84.4 5.0 5.9 84.4 5.8 14.2 9.7 231.8 246.5 0.00 0.0472319
2021-05-08 19:00:00 84.2 4.3 2.9 84.2 16.5 16.5 9.4 253.2 246.3 0.00 0.0422710
2021-05-08 19:05:00 83.6 5.0 5.6 83.6 7.1 13.1 7.5 296.3 261.5 0.00 0.0374245
2021-05-08 19:10:00 83.5 5.1 5.8 83.5 9.9 15.6 8.9 281.7 279.3 0.00 0.0328826
2021-05-08 19:15:00 83.0 5.1 5.3 83.0 14.0 14.0 8.7 271.1 273.9 0.00 0.0277554
2021-05-08 19:20:00 83.0 4.8 4.0 83.0 4.9 15.1 8.5 302.9 280.3 0.00 0.0224538
2021-05-08 19:25:00 82.7 4.7 3.3 82.7 7.4 15.1 9.0 268.0 279.3 0.00 0.0171618
2021-05-08 19:30:00 82.4 5.5 6.7 82.4 1.9 9.7 4.9 196.1 268.7 0.00 0.0106297
2021-05-08 19:35:00 82.1 5.4 6.3 82.1 6.3 11.2 6.2 238.8 276.1 0.00 0.0061880
2021-05-08 19:40:00 81.6 5.1 4.7 81.6 5.3 13.7 6.5 241.2 280.7 0.00 0.0050866
2021-05-08 19:45:00 81.4 5.2 4.9 81.4 8.8 11.9 6.8 273.0 276.9 0.00 0.0038749
2021-05-08 19:50:00 81.6 5.1 4.5 81.6 5.8 9.7 6.4 280.6 257.1 0.00 0.0027071
2021-05-08 19:55:00 81.1 5.3 4.8 81.1 4.4 8.8 5.5 299.8 285.7 0.00 0.0016416
2021-05-08 20:00:00 80.5 5.0 3.4 80.5 10.3 12.2 7.5 285.1 291.7 0.00 0.0008971
2021-05-08 20:05:00 80.4 5.3 4.3 80.4 4.6 11.2 7.4 303.0 293.5 0.00 0.0004576
2021-05-08 20:10:00 80.3 5.2 4.0 80.3 4.9 8.3 5.3 295.8 296.2 0.00 0.0002027
2021-05-08 20:15:00 80.0 5.0 3.1 80.0 7.2 13.0 6.8 323.7 297.6 0.00 0.0000823
2021-05-08 20:20:00 79.7 5.1 3.0 79.7 5.8 10.3 6.3 313.5 293.9 0.00 0.0000080
2021-05-08 20:25:00 79.1 5.6 4.6 79.1 4.4 8.3 5.1 321.9 298.7 0.00 0.0000000
2021-05-08 20:30:00 79.1 5.2 3.2 79.1 2.2 6.3 3.8 278.0 295.5 0.00 0.0000000
2021-05-08 20:35:00 78.9 5.1 2.7 78.9 0.0 5.6 2.9 291.0 300.2 0.00 0.0000000
2021-05-08 20:40:00 78.7 5.1 2.5 78.7 0.8 4.9 1.9 256.2 301.7 0.00 0.0000000
2021-05-08 20:45:00 78.1 5.6 3.9 78.1 0.0 4.9 1.9 302.6 284.9 0.00 0.0000000
2021-05-08 20:50:00 78.1 5.2 2.3 78.1 0.0 4.2 1.2 269.6 266.0 0.00 0.0000000
2021-05-08 20:55:00 77.8 5.7 4.1 77.8 2.4 3.5 0.9 285.0 274.2 0.00 0.0000000
2021-05-08 21:00:00 78.0 5.9 5.3 78.0 0.0 4.0 1.7 250.4 293.5 0.00 0.0000000
2021-05-08 21:05:00 77.6 6.8 8.1 77.6 0.0 1.2 0.1 254.2 263.6 0.00 0.0000000
2021-05-08 21:10:00 76.9 6.6 6.7 76.9 0.0 0.0 0.0 283.6 0.0 0.00 0.0000000
2021-05-08 21:15:00 75.9 9.0 13.1 75.9 0.0 0.0 0.0 270.7 0.0 0.00 0.0000000
2021-05-08 21:20:00 75.3 7.3 7.7 75.3 0.0 0.0 0.0 286.9 0.0 0.00 0.0000000
2021-05-08 21:25:00 74.7 8.5 10.9 74.7 0.0 0.0 0.0 292.7 0.0 0.00 0.0000000
2021-05-08 21:30:00 73.8 7.9 8.5 73.8 0.0 0.0 0.0 227.3 0.0 0.00 0.0000000
2021-05-08 21:35:00 74.0 6.9 5.8 74.0 1.3 1.3 0.1 234.1 253.6 0.00 0.0000000
2021-05-08 21:40:00 74.3 7.1 6.6 74.3 0.0 1.2 0.2 232.3 256.0 0.00 0.0000000
2021-05-08 21:45:00 74.5 7.8 8.8 74.5 0.0 1.5 0.4 245.2 246.6 0.00 0.0000000
2021-05-08 21:50:00 74.2 7.3 6.9 74.2 0.0 1.2 0.3 282.2 254.0 0.00 0.0000000
2021-05-08 21:55:00 74.1 7.7 8.1 74.1 0.0 1.3 0.4 196.2 250.0 0.00 0.0000000
2021-05-08 22:00:00 73.8 7.9 8.5 73.8 0.0 1.2 0.2 209.2 247.5 0.00 0.0000000
2021-05-08 22:05:00 73.1 8.3 9.0 73.1 0.0 0.0 0.0 182.3 0.0 0.00 0.0000020
2021-05-08 22:10:00 71.9 8.8 9.6 71.9 0.0 0.0 0.0 179.2 0.0 0.00 0.0000020
2021-05-08 22:15:00 70.8 9.9 11.3 70.8 0.0 0.0 0.0 145.3 0.0 0.00 0.0000020
2021-05-08 22:20:00 69.9 9.7 10.1 69.9 0.0 0.0 0.0 134.8 0.0 0.00 0.0000020
2021-05-08 22:25:00 69.5 10.3 11.1 69.5 0.0 0.0 0.0 116.8 0.0 0.00 0.0000020
2021-05-08 22:30:00 69.0 10.0 10.1 69.0 0.0 0.8 0.0 175.5 165.7 0.00 0.0000060
2021-05-08 22:35:00 69.0 11.0 12.2 69.0 1.2 1.7 0.4 191.5 183.1 0.00 0.0000040
2021-05-08 22:40:00 68.1 11.2 11.9 68.1 0.0 1.7 1.0 181.1 171.5 0.00 0.0000000
2021-05-08 22:45:00 68.0 11.2 11.9 68.0 0.0 1.5 0.5 196.3 184.6 0.00 0.0000000
2021-05-08 22:50:00 67.7 11.4 12.1 67.7 0.0 0.0 0.0 151.0 0.0 0.00 0.0000040
2021-05-08 22:55:00 67.0 11.4 11.6 67.0 0.0 0.0 0.0 20.9 0.0 0.00 0.0000060
2021-05-08 23:00:00 67.9 11.3 12.1 67.9 1.3 2.2 1.5 22.5 11.4 0.00 0.0000020
2021-05-08 23:05:00 68.7 12.4 14.8 68.7 0.0 2.2 0.9 115.4 24.1 0.00 0.0000000
2021-05-08 23:10:00 67.8 10.6 10.4 67.8 0.0 0.0 0.0 134.6 0.0 0.00 0.0000000

Data is courtesy of the NM Climate Center. DO NOT USE IN LEGAL PROCEEDINGS.